createdAt,value
2023-01-18T00:00:43.826Z,-0.25
2023-01-18T00:01:43.863Z,-0.23
2023-01-18T00:02:43.797Z,-0.20
2023-01-18T00:03:43.778Z,-0.18
2023-01-18T00:04:43.784Z,-0.11
2023-01-18T00:05:43.797Z,-0.11
2023-01-18T00:06:43.738Z,-0.14
2023-01-18T00:07:43.734Z,-0.14
2023-01-18T00:08:43.741Z,-0.11
2023-01-18T00:09:43.707Z,-0.18
2023-01-18T00:10:43.699Z,-0.11
2023-01-18T00:11:43.671Z,-0.14
2023-01-18T00:12:43.664Z,-0.13
2023-01-18T00:13:43.660Z,-0.06
2023-01-18T00:14:43.642Z,-0.06
2023-01-18T00:15:43.626Z,-0.06
2023-01-18T00:16:43.623Z,-0.03
2023-01-18T00:17:43.604Z,0.00
2023-01-18T00:18:43.590Z,0.00
2023-01-18T00:19:43.570Z,-0.02
2023-01-18T00:20:43.561Z,-0.07
2023-01-18T00:21:43.576Z,-0.08
2023-01-18T00:22:43.529Z,-0.07
2023-01-18T00:23:43.533Z,-0.08
2023-01-18T00:24:43.506Z,-0.08
2023-01-18T00:25:43.487Z,-0.11
2023-01-18T00:26:43.475Z,-0.14
2023-01-18T00:27:43.464Z,-0.18
2023-01-18T00:28:43.463Z,-0.20
2023-01-18T00:29:43.444Z,-0.17
2023-01-18T00:30:43.422Z,-0.13
2023-01-18T00:31:43.482Z,-0.13
2023-01-18T00:32:43.403Z,-0.11
2023-01-18T00:33:43.403Z,-0.13
2023-01-18T00:34:43.378Z,-0.13
2023-01-18T00:35:43.358Z,-0.14
2023-01-18T00:36:43.347Z,-0.18
2023-01-18T00:37:43.368Z,-0.13
2023-01-18T00:38:43.334Z,-0.14
2023-01-18T00:39:43.310Z,-0.17
2023-01-18T00:40:43.305Z,-0.17
2023-01-18T00:41:43.281Z,-0.23
2023-01-18T00:42:43.277Z,-0.21
2023-01-18T00:43:43.260Z,-0.23
2023-01-18T00:44:43.255Z,-0.25
2023-01-18T00:45:43.272Z,-0.25
2023-01-18T00:46:43.226Z,-0.26
2023-01-18T00:47:43.208Z,-0.29
2023-01-18T00:48:43.188Z,-0.26
2023-01-18T00:49:43.182Z,-0.26
2023-01-18T00:50:43.169Z,-0.20
2023-01-18T00:51:43.153Z,-0.20
2023-01-18T00:52:43.144Z,-0.21
2023-01-18T00:53:43.156Z,-0.20
2023-01-18T00:54:43.121Z,-0.23
2023-01-18T00:55:43.099Z,-0.17
2023-01-18T00:56:43.090Z,-0.21
2023-01-18T00:57:43.090Z,-0.23
2023-01-18T00:58:43.075Z,-0.25
2023-01-18T00:59:43.045Z,-0.29
2023-01-18T01:00:43.170Z,-0.26
2023-01-18T01:01:43.165Z,-0.21
2023-01-18T01:02:43.102Z,-0.21
2023-01-18T01:03:42.999Z,-0.23
2023-01-18T01:04:42.977Z,-0.17
2023-01-18T01:05:42.966Z,-0.20
2023-01-18T01:06:42.960Z,-0.15
2023-01-18T01:07:42.940Z,-0.15
2023-01-18T01:08:42.933Z,-0.20
2023-01-18T01:09:42.942Z,-0.18
2023-01-18T01:10:42.909Z,-0.13
2023-01-18T01:11:42.888Z,-0.18
2023-01-18T01:12:42.880Z,-0.11
2023-01-18T01:13:42.859Z,-0.11
2023-01-18T01:14:42.855Z,-0.07
2023-01-18T01:15:42.835Z,-0.11
2023-01-18T01:16:43.041Z,0.00
2023-01-18T01:17:42.832Z,-0.03
2023-01-18T01:18:42.797Z,-0.03
2023-01-18T01:19:42.801Z,-0.11
2023-01-18T01:20:42.796Z,-0.11
2023-01-18T01:21:42.785Z,-0.15
2023-01-18T01:22:42.745Z,-0.26
2023-01-18T01:23:42.736Z,-0.26
2023-01-18T01:24:42.717Z,-0.31
2023-01-18T01:25:42.749Z,-0.34
2023-01-18T01:26:42.698Z,-0.29
2023-01-18T01:27:42.691Z,-0.31
2023-01-18T01:28:42.673Z,-0.36
2023-01-18T01:29:42.671Z,-0.32
2023-01-18T01:30:42.650Z,-0.26
2023-01-18T01:31:42.689Z,-0.28
2023-01-18T01:32:42.622Z,-0.31
2023-01-18T01:33:42.602Z,-0.29
2023-01-18T01:34:42.595Z,-0.28
2023-01-18T01:35:42.588Z,-0.31
2023-01-18T01:36:42.561Z,-0.28
2023-01-18T01:37:42.556Z,-0.25
2023-01-18T01:38:42.544Z,-0.23
2023-01-18T01:39:42.528Z,-0.18
2023-01-18T01:40:42.521Z,-0.14
2023-01-18T01:41:42.519Z,-0.15
2023-01-18T01:42:42.494Z,-0.17
2023-01-18T01:43:42.470Z,-0.13
2023-01-18T01:44:42.465Z,-0.10
2023-01-18T01:45:42.476Z,-0.14
2023-01-18T01:46:42.437Z,-0.11
2023-01-18T01:47:42.427Z,-0.21
2023-01-18T01:48:42.414Z,-0.17
2023-01-18T01:49:42.396Z,-0.17
2023-01-18T01:50:42.398Z,-0.15
2023-01-18T01:51:42.380Z,-0.14
2023-01-18T01:52:42.365Z,-0.18
2023-01-18T01:53:42.343Z,-0.17
2023-01-18T01:54:42.333Z,-0.25
2023-01-18T01:55:42.316Z,-0.20
2023-01-18T01:56:42.306Z,-0.21
2023-01-18T01:57:42.323Z,-0.26
2023-01-18T01:58:42.282Z,-0.26
2023-01-18T01:59:42.274Z,-0.29
2023-01-18T02:00:42.257Z,-0.26
2023-01-18T02:01:42.405Z,-0.29
2023-01-18T02:02:42.335Z,-0.32
2023-01-18T02:03:42.217Z,-0.34
2023-01-18T02:04:42.199Z,-0.32
2023-01-18T02:05:42.191Z,-0.32
2023-01-18T02:06:42.173Z,-0.35
2023-01-18T02:07:42.192Z,-0.32
2023-01-18T02:08:42.158Z,-0.34
2023-01-18T02:09:42.145Z,-0.31
2023-01-18T02:10:42.134Z,-0.35
2023-01-18T02:11:42.114Z,-0.36
2023-01-18T02:12:42.098Z,-0.36
2023-01-18T02:13:42.115Z,-0.41
2023-01-18T02:14:42.067Z,-0.38
2023-01-18T02:15:42.055Z,-0.41
2023-01-18T02:16:42.100Z,-0.43
2023-01-18T02:17:42.056Z,-0.43
2023-01-18T02:18:42.020Z,-0.43
2023-01-18T02:19:42.009Z,-0.44
2023-01-18T02:20:41.999Z,-0.41
2023-01-18T02:21:41.975Z,-0.47
2023-01-18T02:22:41.959Z,-0.41
2023-01-18T02:23:41.966Z,-0.46
2023-01-18T02:24:41.946Z,-0.43
2023-01-18T02:25:41.921Z,-0.47
2023-01-18T02:26:41.918Z,-0.47
2023-01-18T02:27:41.903Z,-0.50
2023-01-18T02:28:41.892Z,-0.50
2023-01-18T02:29:41.901Z,-0.54
2023-01-18T02:30:41.899Z,-0.47
2023-01-18T02:31:41.845Z,-0.52
2023-01-18T02:32:41.837Z,-0.53
2023-01-18T02:33:41.907Z,-0.57
2023-01-18T02:34:41.820Z,-0.61
2023-01-18T02:35:41.792Z,-0.61
2023-01-18T02:36:41.778Z,-0.56
2023-01-18T02:37:41.773Z,-0.57
2023-01-18T02:38:41.751Z,-0.57
2023-01-18T02:39:41.751Z,-0.59
2023-01-18T02:40:41.725Z,-0.53
2023-01-18T02:41:41.715Z,-0.56
2023-01-18T02:42:41.698Z,-0.53
2023-01-18T02:43:41.694Z,-0.54
2023-01-18T02:44:41.672Z,-0.61
2023-01-18T02:45:41.688Z,-0.54
2023-01-18T02:46:41.652Z,-0.54
2023-01-18T02:47:41.671Z,-0.52
2023-01-18T02:48:41.650Z,-0.56
2023-01-18T02:49:41.606Z,-0.62
2023-01-18T02:50:41.597Z,-0.61
2023-01-18T02:51:41.586Z,-0.64
2023-01-18T02:52:41.607Z,-0.65
2023-01-18T02:53:41.566Z,-0.64
2023-01-18T02:54:41.553Z,-0.65
2023-01-18T02:55:41.524Z,-0.65
2023-01-18T02:56:41.515Z,-0.67
2023-01-18T02:57:41.514Z,-0.64
2023-01-18T02:58:41.490Z,-0.67
2023-01-18T02:59:41.488Z,-0.64
2023-01-18T03:00:41.469Z,-0.65
2023-01-18T03:01:41.568Z,-0.64
2023-01-18T03:02:41.528Z,-0.65
2023-01-18T03:03:41.428Z,-0.68
2023-01-18T03:04:41.416Z,-0.71
2023-01-18T03:05:41.401Z,-0.72
2023-01-18T03:06:41.392Z,-0.74
2023-01-18T03:07:41.383Z,-0.78
2023-01-18T03:08:41.360Z,-0.75
2023-01-18T03:09:41.346Z,-0.77
2023-01-18T03:10:41.327Z,-0.72
2023-01-18T03:11:41.318Z,-0.74
2023-01-18T03:12:41.301Z,-0.83
2023-01-18T03:13:41.288Z,-0.78
2023-01-18T03:14:41.277Z,-0.78
2023-01-18T03:15:41.303Z,-0.85
2023-01-18T03:16:41.250Z,-0.85
2023-01-18T03:17:41.260Z,-0.90
2023-01-18T03:18:41.230Z,-0.94
2023-01-18T03:19:41.209Z,-0.99
2023-01-18T03:20:41.194Z,-0.96
2023-01-18T03:21:41.179Z,-0.99
2023-01-18T03:22:41.173Z,-0.99
2023-01-18T03:23:41.283Z,-1.04
2023-01-18T03:24:41.233Z,-1.02
2023-01-18T03:25:41.164Z,-0.97
2023-01-18T03:26:41.164Z,-1.01
2023-01-18T03:27:41.103Z,-1.01
2023-01-18T03:28:41.096Z,-1.01
2023-01-18T03:29:41.082Z,-0.99
2023-01-18T03:30:41.126Z,-0.97
2023-01-18T03:31:41.058Z,-0.99
2023-01-18T03:32:41.039Z,-1.05
2023-01-18T03:33:41.052Z,-1.04
2023-01-18T03:34:41.024Z,-1.01
2023-01-18T03:35:40.996Z,-1.05
2023-01-18T03:36:40.995Z,-1.04
2023-01-18T03:37:40.975Z,-1.01
2023-01-18T03:38:40.957Z,-1.08
2023-01-18T03:39:40.945Z,-1.07
2023-01-18T03:40:40.938Z,-1.05
2023-01-18T03:41:40.918Z,-1.08
2023-01-18T03:42:40.905Z,-1.05
2023-01-18T03:43:40.891Z,-1.05
2023-01-18T03:44:40.878Z,-1.08
2023-01-18T03:45:40.871Z,-1.08
2023-01-18T03:46:40.858Z,-1.09
2023-01-18T03:47:40.851Z,-1.12
2023-01-18T03:48:40.835Z,-1.09
2023-01-18T03:49:40.859Z,-1.19
2023-01-18T03:50:40.827Z,-1.14
2023-01-18T03:51:40.801Z,-1.15
2023-01-18T03:52:40.792Z,-1.12
2023-01-18T03:53:40.764Z,-1.12
2023-01-18T03:54:40.758Z,-1.14
2023-01-18T03:55:40.731Z,-1.11
2023-01-18T03:56:40.728Z,-1.09
2023-01-18T03:57:40.716Z,-1.11
2023-01-18T03:58:40.705Z,-1.11
2023-01-18T03:59:40.697Z,-1.09
2023-01-18T04:00:40.671Z,-1.07
2023-01-18T04:01:40.670Z,-1.12
2023-01-18T04:02:40.673Z,-1.11
2023-01-18T04:03:40.634Z,-1.12
2023-01-18T04:04:40.678Z,-1.11
2023-01-18T04:05:40.631Z,-1.09
2023-01-18T04:06:40.647Z,-1.07
2023-01-18T04:07:40.614Z,-1.09
2023-01-18T04:08:40.629Z,-1.05
2023-01-18T04:09:40.558Z,-1.02
2023-01-18T04:10:40.550Z,-1.04
2023-01-18T04:11:40.543Z,-1.04
2023-01-18T04:12:40.517Z,-1.01
2023-01-18T04:13:40.500Z,-0.97
2023-01-18T04:14:40.485Z,-0.94
2023-01-18T04:15:40.510Z,-0.91
2023-01-18T04:16:40.452Z,-0.90
2023-01-18T04:17:40.450Z,-0.85
2023-01-18T04:18:40.424Z,-0.91
2023-01-18T04:19:40.419Z,-0.86
2023-01-18T04:20:40.409Z,-0.86
2023-01-18T04:21:40.432Z,-0.86
2023-01-18T04:22:40.390Z,-0.90
2023-01-18T04:23:40.367Z,-0.89
2023-01-18T04:24:40.364Z,-0.91
2023-01-18T04:25:40.352Z,-0.90
2023-01-18T04:26:40.330Z,-0.94
2023-01-18T04:27:40.316Z,-0.90
2023-01-18T04:28:40.303Z,-0.89
2023-01-18T04:29:40.281Z,-0.86
2023-01-18T04:30:40.267Z,-0.85
2023-01-18T04:31:40.298Z,-0.78
2023-01-18T04:32:40.248Z,-0.80
2023-01-18T04:33:40.231Z,-0.80
2023-01-18T04:34:40.221Z,-0.78
2023-01-18T04:35:40.207Z,-0.83
2023-01-18T04:36:40.197Z,-0.78
2023-01-18T04:37:40.216Z,-0.78
2023-01-18T04:38:40.169Z,-0.83
2023-01-18T04:39:40.158Z,-0.80
2023-01-18T04:40:40.149Z,-0.80
2023-01-18T04:41:40.128Z,-0.80
2023-01-18T04:42:40.127Z,-0.85
2023-01-18T04:43:40.108Z,-0.85
2023-01-18T04:44:40.088Z,-0.86
2023-01-18T04:45:40.067Z,-0.89
2023-01-18T04:46:40.121Z,-0.89
2023-01-18T04:47:40.046Z,-0.89
2023-01-18T04:48:40.036Z,-0.85
2023-01-18T04:49:40.025Z,-0.90
2023-01-18T04:50:40.038Z,-0.85
2023-01-18T04:51:40.007Z,-0.85
2023-01-18T04:52:39.979Z,-0.86
2023-01-18T04:53:39.993Z,-0.78
2023-01-18T04:54:39.957Z,-0.77
2023-01-18T04:55:39.948Z,-0.71
2023-01-18T04:56:39.923Z,-0.75
2023-01-18T04:57:39.909Z,-0.77
2023-01-18T04:58:39.921Z,-0.74
2023-01-18T04:59:39.893Z,-0.68
2023-01-18T05:00:39.967Z,-0.70
2023-01-18T05:01:39.870Z,-0.70
2023-01-18T05:02:39.953Z,-0.72
2023-01-18T05:03:39.833Z,-0.70
2023-01-18T05:04:39.824Z,-0.67
2023-01-18T05:05:39.813Z,-0.68
2023-01-18T05:06:39.808Z,-0.68
2023-01-18T05:07:39.780Z,-0.65
2023-01-18T05:08:39.772Z,-0.68
2023-01-18T05:09:39.788Z,-0.61
2023-01-18T05:10:39.740Z,-0.67
2023-01-18T05:11:39.755Z,-0.64
2023-01-18T05:12:39.739Z,-0.59
2023-01-18T05:13:39.695Z,-0.64
2023-01-18T05:14:39.686Z,-0.64
2023-01-18T05:15:39.672Z,-0.61
2023-01-18T05:16:39.715Z,-0.62
2023-01-18T05:17:39.655Z,-0.62
2023-01-18T05:18:39.643Z,-0.65
2023-01-18T05:19:39.624Z,-0.62
2023-01-18T05:20:39.605Z,-0.61
2023-01-18T05:21:39.595Z,-0.59
2023-01-18T05:22:39.583Z,-0.59
2023-01-18T05:23:39.580Z,-0.59
2023-01-18T05:24:39.553Z,-0.53
2023-01-18T05:25:39.565Z,-0.54
2023-01-18T05:26:39.534Z,-0.54
2023-01-18T05:27:39.523Z,-0.52
2023-01-18T05:28:39.508Z,-0.47
2023-01-18T05:29:39.495Z,-0.50
2023-01-18T05:30:39.488Z,-0.49
2023-01-18T05:31:39.519Z,-0.47
2023-01-18T05:32:39.463Z,-0.46
2023-01-18T05:33:39.441Z,-0.47
2023-01-18T05:34:39.430Z,-0.47
2023-01-18T05:35:39.419Z,-0.44
2023-01-18T05:36:39.400Z,-0.39
2023-01-18T05:37:39.396Z,-0.39
2023-01-18T05:38:39.368Z,-0.38
2023-01-18T05:39:39.361Z,-0.36
2023-01-18T05:40:39.345Z,-0.35
2023-01-18T05:41:39.363Z,-0.38
2023-01-18T05:42:39.335Z,-0.38
2023-01-18T05:43:39.311Z,-0.39
2023-01-18T05:44:39.293Z,-0.43
2023-01-18T05:45:39.395Z,-0.43
2023-01-18T05:46:39.267Z,-0.44
2023-01-18T05:47:39.256Z,-0.44
2023-01-18T05:48:39.235Z,-0.44
2023-01-18T05:49:41.757Z,-0.47
2023-01-18T05:50:39.218Z,-0.36
2023-01-18T05:51:39.196Z,-0.39
2023-01-18T05:52:39.188Z,-0.36
2023-01-18T05:53:39.171Z,-0.32
2023-01-18T05:54:39.156Z,-0.34
2023-01-18T05:55:39.155Z,-0.31
2023-01-18T05:56:39.146Z,-0.26
2023-01-18T05:57:39.141Z,-0.25
2023-01-18T05:58:39.113Z,-0.25
2023-01-18T05:59:39.100Z,-0.21
2023-01-18T06:00:39.085Z,-0.18
2023-01-18T06:01:39.120Z,-0.18
2023-01-18T06:02:39.059Z,-0.18
2023-01-18T06:03:39.045Z,-0.20
2023-01-18T06:04:39.060Z,-0.18
2023-01-18T06:05:39.011Z,-0.15
2023-01-18T06:06:39.022Z,-0.14
2023-01-18T06:07:38.989Z,-0.13
2023-01-18T06:08:38.972Z,-0.11
2023-01-18T06:09:38.982Z,-0.15
2023-01-18T06:10:38.950Z,-0.08
2023-01-18T06:11:38.942Z,-0.10
2023-01-18T06:12:38.927Z,-0.08
2023-01-18T06:13:38.931Z,-0.07
2023-01-18T06:14:38.899Z,-0.03
2023-01-18T06:15:38.878Z,-0.03
2023-01-18T06:16:38.978Z,-0.03
2023-01-18T06:17:38.851Z,-0.06
2023-01-18T06:18:38.844Z,-0.07
2023-01-18T06:19:38.830Z,-0.08
2023-01-18T06:20:38.817Z,-0.08
2023-01-18T06:21:38.797Z,-0.03
2023-01-18T06:22:38.798Z,-0.02
2023-01-18T06:23:38.779Z,0.01
2023-01-18T06:24:38.765Z,0.01
2023-01-18T06:25:38.745Z,0.01
2023-01-18T06:26:38.730Z,0.00
2023-01-18T06:27:38.726Z,-0.02
2023-01-18T06:28:38.717Z,0.03
2023-01-18T06:29:38.726Z,0.00
2023-01-18T06:30:38.693Z,-0.03
2023-01-18T06:31:38.693Z,-0.06
2023-01-18T06:32:38.654Z,-0.10
2023-01-18T06:33:38.659Z,-0.17
2023-01-18T06:34:38.636Z,-0.21
2023-01-18T06:35:38.619Z,-0.15
2023-01-18T06:36:38.668Z,-0.14
2023-01-18T06:37:38.600Z,-0.23
2023-01-18T06:38:38.581Z,-0.20
2023-01-18T06:39:38.568Z,-0.20
2023-01-18T06:40:38.555Z,-0.25
2023-01-18T06:41:38.536Z,-0.23
2023-01-18T06:42:38.528Z,-0.21
2023-01-18T06:43:38.518Z,-0.23
2023-01-18T06:44:38.502Z,-0.26
2023-01-18T06:45:38.581Z,-0.28
2023-01-18T06:46:38.481Z,-0.28
2023-01-18T06:47:38.473Z,-0.28
2023-01-18T06:48:38.452Z,-0.34
2023-01-18T06:49:38.443Z,-0.32
2023-01-18T06:50:38.419Z,-0.32
2023-01-18T06:51:38.411Z,-0.29
2023-01-18T06:52:38.398Z,-0.35
2023-01-18T06:53:38.375Z,-0.34
2023-01-18T06:54:38.371Z,-0.35
2023-01-18T06:55:38.355Z,-0.34
2023-01-18T06:56:38.336Z,-0.32
2023-01-18T06:57:38.324Z,-0.28
2023-01-18T06:58:38.323Z,-0.34
2023-01-18T06:59:38.297Z,-0.35
2023-01-18T07:00:38.285Z,-0.32
2023-01-18T07:01:38.475Z,-0.32
2023-01-18T07:02:38.257Z,-0.32
2023-01-18T07:03:38.245Z,-0.26
2023-01-18T07:04:38.257Z,-0.20
2023-01-18T07:05:38.228Z,-0.20
2023-01-18T07:06:38.213Z,-0.23
2023-01-18T07:07:38.222Z,-0.20
2023-01-18T07:08:38.179Z,-0.20
2023-01-18T07:09:38.193Z,-0.18
2023-01-18T07:10:38.153Z,-0.17
2023-01-18T07:11:38.139Z,-0.15
2023-01-18T07:12:38.132Z,-0.11
2023-01-18T07:13:38.112Z,-0.14
2023-01-18T07:14:38.102Z,-0.20
2023-01-18T07:15:38.095Z,-0.20
2023-01-18T07:16:38.135Z,-0.28
2023-01-18T07:17:38.091Z,-0.32
2023-01-18T07:18:38.061Z,-0.35
2023-01-18T07:19:38.034Z,-0.31
2023-01-18T07:20:38.038Z,-0.36
2023-01-18T07:21:38.031Z,-0.35
2023-01-18T07:22:38.001Z,-0.35
2023-01-18T07:23:37.988Z,-0.36
2023-01-18T07:24:37.965Z,-0.38
2023-01-18T07:25:37.957Z,-0.41
2023-01-18T07:26:37.950Z,-0.38
2023-01-18T07:27:37.934Z,-0.43
2023-01-18T07:28:37.959Z,-0.43
2023-01-18T07:29:37.905Z,-0.43
2023-01-18T07:30:37.897Z,-0.44
2023-01-18T07:31:37.903Z,-0.43
2023-01-18T07:32:37.870Z,-0.47
2023-01-18T07:33:37.882Z,-0.43
2023-01-18T07:34:37.842Z,-0.35
2023-01-18T07:35:37.823Z,-0.35
2023-01-18T07:36:37.822Z,-0.34
2023-01-18T07:37:37.806Z,-0.35
2023-01-18T07:38:37.799Z,-0.36
2023-01-18T07:39:37.786Z,-0.32
2023-01-18T07:40:37.779Z,-0.28
2023-01-18T07:41:37.757Z,-0.32
2023-01-18T07:42:37.732Z,-0.28
2023-01-18T07:43:37.728Z,-0.34
2023-01-18T07:44:37.730Z,-0.31
2023-01-18T07:45:37.696Z,-0.32
2023-01-18T07:46:37.680Z,-0.29
2023-01-18T07:47:37.672Z,-0.28
2023-01-18T07:48:39.043Z,-0.28
2023-01-18T07:49:37.678Z,-0.28
2023-01-18T07:50:37.637Z,-0.21
2023-01-18T07:51:37.625Z,-0.26
2023-01-18T07:52:37.596Z,-0.21
2023-01-18T07:53:37.597Z,-0.21
2023-01-18T07:54:37.572Z,-0.25
2023-01-18T07:55:37.565Z,-0.25
2023-01-18T07:56:37.563Z,-0.20
2023-01-18T07:57:37.573Z,-0.20
2023-01-18T07:58:37.533Z,-0.23
2023-01-18T07:59:37.511Z,-0.20
2023-01-18T08:00:37.501Z,-0.23
2023-01-18T08:01:37.629Z,-0.23
2023-01-18T08:02:37.506Z,-0.26
2023-01-18T08:03:37.481Z,-0.26
2023-01-18T08:04:37.449Z,-0.28
2023-01-18T08:05:37.458Z,-0.29
2023-01-18T08:06:37.469Z,-0.18
2023-01-18T08:07:37.417Z,-0.18
2023-01-18T08:08:37.396Z,-0.23
2023-01-18T08:09:37.385Z,-0.21
2023-01-18T08:10:37.371Z,-0.15
2023-01-18T08:11:37.364Z,-0.15
2023-01-18T08:12:37.341Z,-0.13
2023-01-18T08:13:37.339Z,-0.17
2023-01-18T08:14:37.322Z,-0.15
2023-01-18T08:15:37.338Z,-0.17
2023-01-18T08:16:37.385Z,-0.10
2023-01-18T08:17:37.269Z,-0.03
2023-01-18T08:18:37.260Z,-0.15
2023-01-18T08:19:37.254Z,-0.11
2023-01-18T08:20:37.251Z,-0.11
2023-01-18T08:21:37.320Z,-0.17
2023-01-18T08:22:37.202Z,-0.20
2023-01-18T08:23:37.207Z,-0.11
2023-01-18T08:24:37.181Z,-0.11
2023-01-18T08:25:37.175Z,-0.11
2023-01-18T08:26:37.153Z,-0.07
2023-01-18T08:27:37.146Z,-0.02
2023-01-18T08:28:37.126Z,0.04
2023-01-18T08:29:37.121Z,0.07
2023-01-18T08:30:37.111Z,0.11
2023-01-18T08:31:37.167Z,0.08
2023-01-18T08:32:37.084Z,0.15
2023-01-18T08:33:37.066Z,0.21
2023-01-18T08:34:37.061Z,0.29
2023-01-18T08:35:37.042Z,0.21
2023-01-18T08:36:37.035Z,0.23
2023-01-18T08:37:37.070Z,0.32
2023-01-18T08:38:37.014Z,0.29
2023-01-18T08:39:36.999Z,0.28
2023-01-18T08:40:36.980Z,0.32
2023-01-18T08:41:36.957Z,0.34
2023-01-18T08:42:36.956Z,0.32
2023-01-18T08:43:36.936Z,0.32
2023-01-18T08:44:36.927Z,0.39
2023-01-18T08:45:36.921Z,0.32
2023-01-18T08:46:36.910Z,0.32
2023-01-18T08:47:36.888Z,0.31
2023-01-18T08:48:36.881Z,0.26
2023-01-18T08:49:36.863Z,0.31
2023-01-18T08:50:36.835Z,0.28
2023-01-18T08:51:36.830Z,0.28
2023-01-18T08:52:36.811Z,0.26
2023-01-18T08:53:36.830Z,0.23
2023-01-18T08:54:36.794Z,0.32
2023-01-18T08:55:36.784Z,0.31
2023-01-18T08:56:36.759Z,0.39
2023-01-18T08:57:36.751Z,0.47
2023-01-18T08:58:36.743Z,0.49
2023-01-18T08:59:36.724Z,0.55
2023-01-18T09:00:36.707Z,0.66
2023-01-18T09:01:36.886Z,0.74
2023-01-18T09:02:36.725Z,0.81
2023-01-18T09:03:36.684Z,0.83
2023-01-18T09:04:36.656Z,0.92
2023-01-18T09:05:36.669Z,1.02
2023-01-18T09:06:36.638Z,1.22
2023-01-18T09:07:36.614Z,1.16
2023-01-18T09:08:36.602Z,1.06
2023-01-18T09:09:36.739Z,1.04
2023-01-18T09:10:36.580Z,1.08
2023-01-18T09:11:36.571Z,1.20
2023-01-18T09:12:36.555Z,1.30
2023-01-18T09:13:36.549Z,1.37
2023-01-18T09:14:36.523Z,1.45
2023-01-18T09:15:36.519Z,1.42
2023-01-18T09:16:36.510Z,1.50
2023-01-18T09:17:36.493Z,1.73
2023-01-18T09:18:36.484Z,1.88
2023-01-18T09:19:36.464Z,2.07
2023-01-18T09:20:36.493Z,2.20
2023-01-18T09:21:36.434Z,2.10
2023-01-18T09:22:36.423Z,2.06
2023-01-18T09:23:36.404Z,2.13
2023-01-18T09:24:36.396Z,2.28
2023-01-18T09:25:36.416Z,2.50
2023-01-18T09:26:36.375Z,2.46
2023-01-18T09:27:36.371Z,2.50
2023-01-18T09:28:36.352Z,2.68
2023-01-18T09:29:36.350Z,2.79
2023-01-18T09:30:36.338Z,2.57
2023-01-18T09:31:36.339Z,2.61
2023-01-18T09:32:36.310Z,2.61
2023-01-18T09:33:37.944Z,2.49
2023-01-18T09:34:36.268Z,2.38
2023-01-18T09:35:36.259Z,2.31
2023-01-18T09:36:36.243Z,2.20
2023-01-18T09:37:36.221Z,2.08
2023-01-18T09:38:36.220Z,2.06
2023-01-18T09:39:50.759Z,1.92
2023-01-18T09:40:37.215Z,1.88
2023-01-18T09:41:36.224Z,1.68
2023-01-18T09:42:36.154Z,1.59
2023-01-18T09:43:36.150Z,1.37
2023-01-18T09:44:36.158Z,1.40
2023-01-18T09:45:36.124Z,1.34
2023-01-18T09:46:36.243Z,1.17
2023-01-18T09:47:36.097Z,1.17
2023-01-18T09:48:36.089Z,1.17
2023-01-18T09:49:36.069Z,1.20
2023-01-18T09:50:36.054Z,1.22
2023-01-18T09:51:36.046Z,1.24
2023-01-18T09:52:36.026Z,1.16
2023-01-18T09:53:36.015Z,1.12
2023-01-18T09:54:36.005Z,1.14
2023-01-18T09:55:35.991Z,1.37
2023-01-18T09:56:38.522Z,1.84
2023-01-18T09:57:36.039Z,2.11
2023-01-18T09:58:35.964Z,2.29
2023-01-18T09:59:35.933Z,2.36
2023-01-18T10:00:35.934Z,2.60
2023-01-18T10:01:36.073Z,2.60
2023-01-18T10:02:35.936Z,2.71
2023-01-18T10:03:35.888Z,2.53
2023-01-18T10:04:35.884Z,2.15
2023-01-18T10:05:35.876Z,2.04
2023-01-18T10:06:35.849Z,1.89
2023-01-18T10:07:35.843Z,1.71
2023-01-18T10:08:35.829Z,1.70
2023-01-18T10:09:35.807Z,1.56
2023-01-18T10:10:35.790Z,1.50
2023-01-18T10:11:35.793Z,1.38
2023-01-18T10:12:35.766Z,1.38
2023-01-18T10:13:35.789Z,1.38
2023-01-18T10:14:35.774Z,1.38
2023-01-18T10:15:35.743Z,1.41
2023-01-18T10:16:35.784Z,1.38
2023-01-18T10:17:35.714Z,1.41
2023-01-18T10:18:35.686Z,1.41
2023-01-18T10:19:35.689Z,1.48
2023-01-18T10:20:35.671Z,1.53
2023-01-18T10:21:35.656Z,1.52
2023-01-18T10:22:35.634Z,1.48
2023-01-18T10:23:35.637Z,1.45
2023-01-18T10:24:35.620Z,1.49
2023-01-18T10:25:35.608Z,1.45
2023-01-18T10:26:35.589Z,1.55
2023-01-18T10:27:35.573Z,1.49
2023-01-18T10:28:35.570Z,1.48
2023-01-18T10:29:35.713Z,1.42
2023-01-18T10:30:35.538Z,1.44
2023-01-18T10:31:35.580Z,1.50
2023-01-18T10:32:35.511Z,1.49
2023-01-18T10:33:35.496Z,1.53
2023-01-18T10:34:35.493Z,1.66
2023-01-18T10:35:35.469Z,1.67
2023-01-18T10:36:35.453Z,1.68
2023-01-18T10:37:35.463Z,1.68
2023-01-18T10:38:35.448Z,1.70
2023-01-18T10:39:35.426Z,1.62
2023-01-18T10:40:35.415Z,1.62
2023-01-18T10:41:35.406Z,1.59
2023-01-18T10:42:35.377Z,1.62
2023-01-18T10:43:35.377Z,1.76
2023-01-18T10:44:35.375Z,1.89
2023-01-18T10:45:35.417Z,1.87
2023-01-18T10:46:35.333Z,1.92
2023-01-18T10:47:35.312Z,2.02
2023-01-18T10:48:35.304Z,2.10
2023-01-18T10:49:35.296Z,2.17
2023-01-18T10:50:35.290Z,1.99
2023-01-18T10:51:35.399Z,1.91
2023-01-18T10:52:35.246Z,1.88
2023-01-18T10:53:35.263Z,1.92
2023-01-18T10:54:35.227Z,2.04
2023-01-18T10:55:35.213Z,2.04
2023-01-18T10:56:35.196Z,1.97
2023-01-18T10:57:35.191Z,1.94
2023-01-18T10:58:35.186Z,1.88
2023-01-18T10:59:35.161Z,1.95
2023-01-18T11:00:35.148Z,1.97
2023-01-18T11:01:35.293Z,2.08
2023-01-18T11:02:35.145Z,2.18
2023-01-18T11:03:35.104Z,2.29
2023-01-18T11:04:35.097Z,2.36
2023-01-18T11:05:35.084Z,2.39
2023-01-18T11:06:35.062Z,2.43
2023-01-18T11:07:35.054Z,2.18
2023-01-18T11:08:35.041Z,2.28
2023-01-18T11:09:35.029Z,2.28
2023-01-18T11:10:35.022Z,2.32
2023-01-18T11:11:35.000Z,2.36
2023-01-18T11:12:35.024Z,2.18
2023-01-18T11:13:34.985Z,2.15
2023-01-18T11:14:34.972Z,2.14
2023-01-18T11:15:34.957Z,2.20
2023-01-18T11:16:34.984Z,2.20
2023-01-18T11:17:34.945Z,2.10
2023-01-18T11:18:34.916Z,2.11
2023-01-18T11:19:34.897Z,2.07
2023-01-18T11:20:34.884Z,2.14
2023-01-18T11:21:34.870Z,2.04
2023-01-18T11:22:34.880Z,1.95
2023-01-18T11:23:34.852Z,1.76
2023-01-18T11:24:34.847Z,1.70
2023-01-18T11:25:34.830Z,1.59
2023-01-18T11:26:34.810Z,1.56
2023-01-18T11:27:34.789Z,1.53
2023-01-18T11:28:34.819Z,1.55
2023-01-18T11:29:34.772Z,1.40
2023-01-18T11:30:34.755Z,1.35
2023-01-18T11:31:34.743Z,1.30
2023-01-18T11:32:34.736Z,1.16
2023-01-18T11:33:34.817Z,1.01
2023-01-18T11:34:34.715Z,0.86
2023-01-18T11:35:34.714Z,0.86
2023-01-18T11:36:34.694Z,0.96
2023-01-18T11:37:34.806Z,1.06
2023-01-18T11:38:34.664Z,1.16
2023-01-18T11:39:34.683Z,1.26
2023-01-18T11:40:34.631Z,1.31
2023-01-18T11:41:34.619Z,1.35
2023-01-18T11:42:34.595Z,1.31
2023-01-18T11:43:34.592Z,1.32
2023-01-18T11:44:34.588Z,1.32
2023-01-18T11:45:34.590Z,1.28
2023-01-18T11:46:34.561Z,1.32
2023-01-18T11:47:34.539Z,1.28
2023-01-18T11:48:34.526Z,1.30
2023-01-18T11:49:34.533Z,1.23
2023-01-18T11:50:34.508Z,1.26
2023-01-18T11:51:34.478Z,1.22
2023-01-18T11:52:34.494Z,1.14
2023-01-18T11:53:34.465Z,1.10
2023-01-18T11:54:34.456Z,1.10
2023-01-18T11:55:34.450Z,1.05
2023-01-18T11:56:34.429Z,1.05
2023-01-18T11:57:34.400Z,1.04
2023-01-18T11:58:34.399Z,1.01
2023-01-18T11:59:34.376Z,1.05
2023-01-18T12:00:34.369Z,1.05
2023-01-18T12:01:34.364Z,1.04
2023-01-18T12:02:34.419Z,0.98
2023-01-18T12:03:34.411Z,0.99
2023-01-18T12:04:34.311Z,0.95
2023-01-18T12:05:34.326Z,0.86
2023-01-18T12:06:34.308Z,0.87
2023-01-18T12:07:34.287Z,0.84
2023-01-18T12:08:34.285Z,0.78
2023-01-18T12:09:34.248Z,0.76
2023-01-18T12:10:34.256Z,0.74
2023-01-18T12:11:34.219Z,0.63
2023-01-18T12:12:34.222Z,0.59
2023-01-18T12:13:34.197Z,0.62
2023-01-18T12:14:34.185Z,0.60
2023-01-18T12:15:34.165Z,0.59
2023-01-18T12:16:34.206Z,0.68
2023-01-18T12:17:34.147Z,0.66
2023-01-18T12:18:34.127Z,0.69
2023-01-18T12:19:34.119Z,0.76
2023-01-18T12:20:34.170Z,0.73
2023-01-18T12:21:34.129Z,0.78
2023-01-18T12:22:34.082Z,0.88
2023-01-18T12:23:34.077Z,0.81
2023-01-18T12:24:34.042Z,0.87
2023-01-18T12:25:34.039Z,0.77
2023-01-18T12:26:34.040Z,0.73
2023-01-18T12:27:34.020Z,0.80
2023-01-18T12:28:33.996Z,0.80
2023-01-18T12:29:33.991Z,0.83
2023-01-18T12:30:34.061Z,0.88
2023-01-18T12:31:33.958Z,0.80
2023-01-18T12:32:33.958Z,0.76
2023-01-18T12:33:43.032Z,0.74
2023-01-18T12:34:34.957Z,0.60
2023-01-18T12:35:33.932Z,0.60
2023-01-18T12:36:33.926Z,0.66
2023-01-18T12:37:33.962Z,0.63
2023-01-18T12:38:33.872Z,0.63
2023-01-18T12:39:33.864Z,0.70
2023-01-18T12:40:33.895Z,0.66
2023-01-18T12:41:33.834Z,0.73
2023-01-18T12:42:33.823Z,0.78
2023-01-18T12:43:33.798Z,0.78
2023-01-18T12:44:33.815Z,0.80
2023-01-18T12:45:33.782Z,0.87
2023-01-18T12:46:33.783Z,0.84
2023-01-18T12:47:33.754Z,0.83
2023-01-18T12:48:33.739Z,0.86
2023-01-18T12:49:33.733Z,0.86
2023-01-18T12:50:33.756Z,0.88
2023-01-18T12:51:33.707Z,0.96
2023-01-18T12:52:33.691Z,0.92
2023-01-18T12:53:33.739Z,0.94
2023-01-18T12:54:33.668Z,0.96
2023-01-18T12:55:33.647Z,0.91
2023-01-18T12:56:33.648Z,0.87
2023-01-18T12:57:33.633Z,0.91
2023-01-18T12:58:33.615Z,0.88
2023-01-18T12:59:33.621Z,0.91
2023-01-18T13:00:33.590Z,0.95
2023-01-18T13:01:33.708Z,1.02